TimeCST,TemperatureF,Dew PointF,Humidity,Sea Level PressureIn,VisibilityMPH,Wind Direction,Wind SpeedMPH,Gust SpeedMPH,PrecipitationIn,Events,Conditions,WindDirDegrees,DateUTC
5:50 AM,50,45,78,30.14,6,NE,2.2,,,,Partly Cloudy,40,2012-11-14 11:50:00
5:58 AM,46.4,44.6,93,30.09,10.0,North,3.5,-,N/A,,Mostly Cloudy,360,2012-11-14 11:58:00
6:45 AM,44.6,44.6,100,30.33,12.0,North,4.6,-,N/A,,Mostly Cloudy,360,2012-11-14 12:45:00
7:41 AM,50.0,46.4,87,30.35,12.0,North,6.9,-,N/A,,Mostly Cloudy,360,2012-11-14 13:41:00
8:35 AM,59,48,58,30.22,12,NW,2.2,,,,Partly Cloudy,320,2012-11-14 14:35:00
8:44 AM,57.2,48.2,72,30.14,12.0,North,2.3,-,N/A,,Mostly Cloudy,360,2012-11-14 14:44:00
9:41 AM,62.6,50.0,63,30.36,12.0,North,2.3,-,N/A,,Mostly Cloudy,360,2012-11-14 15:41:00
10:48 AM,69.8,48.2,46,30.34,12.0,NW,5.8,-,N/A,,Mostly Cloudy,310,2012-11-14 16:48:00
11:42 AM,71.6,46.4,41,30.01,12.0,NNE,3.5,-,N/A,,Scattered Clouds,30,2012-11-14 17:42:00
11:45 AM,76,49,28,30.15,12,West,2.2,,,,Partly Cloudy,270,2012-11-14 17:45:00
12:43 PM,73.4,46.4,38,30.27,12.0,NE,6.9,-,N/A,,Scattered Clouds,40,2012-11-14 18:43:00
1:49 PM,75.2,48.2,38,30.22,12.0,West,5.8,-,N/A,,Scattered Clouds,270,2012-11-14 19:49:00
2:45 PM,77.0,50.0,39,29.91,12.0,NW,10.4,-,N/A,,Mostly Cloudy,320,2012-11-14 20:45:00
2:50 PM,81,50,23,29.97,9,NNW,4.5,,,,Haze,340,2012-11-14 20:50:00
3:45 PM,75.2,50.0,41,30.19,12.0,NW,13.8,-,N/A,,Scattered Clouds,320,2012-11-14 21:45:00
4:45 PM,73.4,50.0,44,30.22,12.0,NW,11.5,-,N/A,,Mostly Cloudy,320,2012-11-14 22:45:00
5:45 PM,70,48,35,29.95,9,NNW,11.2,,,,Haze,340,2012-11-14 23:45:00
5:45 PM,68.0,50.0,52,30.03,12.0,North,11.5,-,N/A,,Scattered Clouds,360,2012-11-14 23:45:00
6:45 PM,64.4,48.2,56,30.28,8.0,NNW,5.8,-,N/A,,Scattered Clouds,330,2012-11-15 00:45:00
7:45 PM,64.4,48.2,56,30.30,8.0,NW,5.8,-,N/A,,Scattered Clouds,320,2012-11-15 01:45:00
8:45 PM,64,49,47,30.01,9,NW,4.5,,,,,310,2012-11-15 02:45:00
8:45 PM,60.8,48.2,63,30.09,8.0,NNW,5.8,-,N/A,,Scattered Clouds,340,2012-11-15 02:45:00
9:45 PM,60.8,48.2,63,30.33,8.0,NNW,8.1,-,N/A,,Scattered Clouds,340,2012-11-15 03:45:00
11:45 PM,60,50,62,30.03,9,NW,4.5,,,,,320,2012-11-15 05:45:00